sensor_id;sensor_type;location;lat;lon;timestamp;pressure;altitude;pressure_sealevel;temperature;humidity
33414;BME280;60055;41.884;12.534;2023-03-23T00:00:08;101072.84;;;14.89;68.83
33414;BME280;60055;41.884;12.534;2023-03-23T00:02:39;101074.66;;;14.88;68.65
33414;BME280;60055;41.884;12.534;2023-03-23T00:05:05;101076.75;;;14.81;69.37
33414;BME280;60055;41.884;12.534;2023-03-23T00:07:33;101071.94;;;14.90;68.63
33414;BME280;60055;41.884;12.534;2023-03-23T00:09:58;101066.78;;;14.87;69.09
33414;BME280;60055;41.884;12.534;2023-03-23T00:12:27;101061.31;;;14.90;68.83
33414;BME280;60055;41.884;12.534;2023-03-23T00:15:06;101066.69;;;14.88;68.63
33414;BME280;60055;41.884;12.534;2023-03-23T00:17:33;101065.91;;;14.86;68.71
33414;BME280;60055;41.884;12.534;2023-03-23T00:20:00;101059.78;;;14.84;68.64
33414;BME280;60055;41.884;12.534;2023-03-23T00:22:27;101057.50;;;14.76;69.05
33414;BME280;60055;41.884;12.534;2023-03-23T00:24:53;101063.75;;;14.75;69.35
33414;BME280;60055;41.884;12.534;2023-03-23T00:27:19;101053.84;;;14.79;69.17
33414;BME280;60055;41.884;12.534;2023-03-23T00:29:50;101053.13;;;14.75;69.25
33414;BME280;60055;41.884;12.534;2023-03-23T00:32:24;101051.25;;;14.59;69.95
33414;BME280;60055;41.884;12.534;2023-03-23T00:34:57;101054.28;;;14.70;69.24
33414;BME280;60055;41.884;12.534;2023-03-23T00:37:26;101056.22;;;14.66;69.04
33414;BME280;60055;41.884;12.534;2023-03-23T00:39:51;101052.28;;;14.56;69.62
33414;BME280;60055;41.884;12.534;2023-03-23T00:42:22;101051.63;;;14.51;69.83
33414;BME280;60055;41.884;12.534;2023-03-23T00:44:47;101048.09;;;14.51;70.08
33414;BME280;60055;41.884;12.534;2023-03-23T00:47:13;101057.06;;;14.67;69.13
33414;BME280;60055;41.884;12.534;2023-03-23T00:49:40;101053.31;;;14.71;69.40
33414;BME280;60055;41.884;12.534;2023-03-23T00:52:06;101046.53;;;14.65;68.97
33414;BME280;60055;41.884;12.534;2023-03-23T00:54:33;101033.59;;;14.58;69.38
33414;BME280;60055;41.884;12.534;2023-03-23T00:56:59;101039.25;;;14.50;69.98
33414;BME280;60055;41.884;12.534;2023-03-23T00:59:25;101042.00;;;14.49;70.16
33414;BME280;60055;41.884;12.534;2023-03-23T01:01:51;101041.13;;;14.48;69.94
33414;BME280;60055;41.884;12.534;2023-03-23T01:04:16;101042.16;;;14.07;70.92
33414;BME280;60055;41.884;12.534;2023-03-23T01:06:43;101039.72;;;14.02;70.64
33414;BME280;60055;41.884;12.534;2023-03-23T01:09:12;101033.81;;;13.96;69.60
33414;BME280;60055;41.884;12.534;2023-03-23T01:11:45;101037.28;;;13.77;69.69
33414;BME280;60055;41.884;12.534;2023-03-23T01:14:13;101044.84;;;13.87;69.37
33414;BME280;60055;41.884;12.534;2023-03-23T01:16:39;101030.97;;;13.60;69.38
33414;BME280;60055;41.884;12.534;2023-03-23T01:19:05;101042.91;;;13.70;68.86
33414;BME280;60055;41.884;12.534;2023-03-23T01:21:30;101041.00;;;13.73;68.68
33414;BME280;60055;41.884;12.534;2023-03-23T01:23:56;101047.97;;;13.56;68.96
33414;BME280;60055;41.884;12.534;2023-03-23T01:29:51;101044.19;;;13.41;68.98
33414;BME280;60055;41.884;12.534;2023-03-23T01:32:26;101041.28;;;13.47;69.05
33414;BME280;60055;41.884;12.534;2023-03-23T01:35:22;101031.06;;;13.38;68.85
33414;BME280;60055;41.884;12.534;2023-03-23T01:37:56;101027.59;;;13.36;68.81
33414;BME280;60055;41.884;12.534;2023-03-23T01:40:25;101022.81;;;13.24;69.34
33414;BME280;60055;41.884;12.534;2023-03-23T01:42:58;101024.66;;;13.22;69.43
33414;BME280;60055;41.884;12.534;2023-03-23T01:45:53;101024.19;;;13.12;69.56
33414;BME280;60055;41.884;12.534;2023-03-23T01:48:56;101012.34;;;13.21;68.99
33414;BME280;60055;41.884;12.534;2023-03-23T01:52:22;101007.84;;;13.23;69.35
33414;BME280;60055;41.884;12.534;2023-03-23T01:55:08;101009.47;;;13.25;69.32
33414;BME280;60055;41.884;12.534;2023-03-23T01:58:45;101000.47;;;13.29;69.43
33414;BME280;60055;41.884;12.534;2023-03-23T02:01:23;101000.75;;;13.44;68.42
33414;BME280;60055;41.884;12.534;2023-03-23T02:04:14;101005.78;;;13.50;68.15
33414;BME280;60055;41.884;12.534;2023-03-23T02:10:22;100998.41;;;13.56;68.46
33414;BME280;60055;41.884;12.534;2023-03-23T02:13:36;101004.53;;;13.58;68.00
33414;BME280;60055;41.884;12.534;2023-03-23T02:20:13;100998.97;;;13.44;68.53
33414;BME280;60055;41.884;12.534;2023-03-23T02:26:29;100989.03;;;13.07;69.73
33414;BME280;60055;41.884;12.534;2023-03-23T02:36:36;100997.66;;;13.12;69.23
33414;BME280;60055;41.884;12.534;2023-03-23T02:46:14;100994.88;;;13.15;69.02
33414;BME280;60055;41.884;12.534;2023-03-23T02:49:05;100994.97;;;13.14;69.41
33414;BME280;60055;41.884;12.534;2023-03-23T02:52:02;101011.34;;;13.23;68.94
33414;BME280;60055;41.884;12.534;2023-03-23T02:54:57;101007.69;;;13.26;68.72
33414;BME280;60055;41.884;12.534;2023-03-23T02:58:01;101009.88;;;13.16;69.21
33414;BME280;60055;41.884;12.534;2023-03-23T03:10:25;101006.53;;;13.11;69.54
33414;BME280;60055;41.884;12.534;2023-03-23T03:17:00;101004.66;;;12.93;70.29
33414;BME280;60055;41.884;12.534;2023-03-23T03:19:54;101003.78;;;13.14;69.60
33414;BME280;60055;41.884;12.534;2023-03-23T03:22:43;100993.06;;;13.17;69.75
33414;BME280;60055;41.884;12.534;2023-03-23T03:25:35;100990.88;;;13.05;70.37
33414;BME280;60055;41.884;12.534;2023-03-23T03:28:39;100996.25;;;13.04;70.46
33414;BME280;60055;41.884;12.534;2023-03-23T03:31:32;101001.38;;;12.87;71.39
33414;BME280;60055;41.884;12.534;2023-03-23T03:34:06;100999.03;;;13.01;70.60
33414;BME280;60055;41.884;12.534;2023-03-23T03:36:53;101001.72;;;12.99;71.12
33414;BME280;60055;41.884;12.534;2023-03-23T03:39:35;101004.34;;;12.79;71.50
33414;BME280;60055;41.884;12.534;2023-03-23T03:42:24;101003.03;;;12.89;71.62
33414;BME280;60055;41.884;12.534;2023-03-23T03:48:31;101010.38;;;12.61;72.34
33414;BME280;60055;41.884;12.534;2023-03-23T03:54:31;101009.50;;;12.82;71.51
33414;BME280;60055;41.884;12.534;2023-03-23T03:57:28;101009.91;;;12.73;71.72
33414;BME280;60055;41.884;12.534;2023-03-23T04:00:36;101013.06;;;12.81;71.11
33414;BME280;60055;41.884;12.534;2023-03-23T04:03:42;101016.28;;;12.89;71.42
33414;BME280;60055;41.884;12.534;2023-03-23T04:13:47;101021.81;;;12.40;72.85
33414;BME280;60055;41.884;12.534;2023-03-23T04:20:06;101017.34;;;12.85;71.41
33414;BME280;60055;41.884;12.534;2023-03-23T04:23:19;101023.53;;;12.64;71.99
33414;BME280;60055;41.884;12.534;2023-03-23T04:29:38;101025.75;;;12.51;72.18
33414;BME280;60055;41.884;12.534;2023-03-23T04:32:55;101028.16;;;12.57;72.00
33414;BME280;60055;41.884;12.534;2023-03-23T04:42:28;101025.78;;;12.73;71.16
33414;BME280;60055;41.884;12.534;2023-03-23T04:45:47;101010.28;;;12.64;70.89
33414;BME280;60055;41.884;12.534;2023-03-23T04:48:48;101013.41;;;12.73;70.24
33414;BME280;60055;41.884;12.534;2023-03-23T04:54:55;101013.00;;;12.61;70.26
33414;BME280;60055;41.884;12.534;2023-03-23T04:57:54;101011.44;;;12.57;70.09
33414;BME280;60055;41.884;12.534;2023-03-23T05:01:01;101007.53;;;12.65;70.51
33414;BME280;60055;41.884;12.534;2023-03-23T05:10:22;101006.06;;;12.80;69.51
33414;BME280;60055;41.884;12.534;2023-03-23T05:13:01;101004.41;;;12.56;70.45
33414;BME280;60055;41.884;12.534;2023-03-23T05:15:50;101003.50;;;12.57;70.63
33414;BME280;60055;41.884;12.534;2023-03-23T05:18:36;100996.06;;;12.65;70.33
33414;BME280;60055;41.884;12.534;2023-03-23T05:21:36;101008.47;;;12.64;70.70
33414;BME280;60055;41.884;12.534;2023-03-23T05:24:20;101006.94;;;12.59;70.01
33414;BME280;60055;41.884;12.534;2023-03-23T05:27:26;101003.63;;;12.54;70.77
33414;BME280;60055;41.884;12.534;2023-03-23T05:30:13;101003.94;;;12.45;70.60
33414;BME280;60055;41.884;12.534;2023-03-23T05:32:43;101004.53;;;12.53;70.46
33414;BME280;60055;41.884;12.534;2023-03-23T05:35:10;101009.31;;;12.65;70.30
33414;BME280;60055;41.884;12.534;2023-03-23T05:37:42;101011.63;;;12.74;70.18
33414;BME280;60055;41.884;12.534;2023-03-23T05:41:00;101012.78;;;12.89;69.94
33414;BME280;60055;41.884;12.534;2023-03-23T05:43:30;101010.81;;;12.94;69.60
33414;BME280;60055;41.884;12.534;2023-03-23T05:46:01;101009.81;;;12.96;71.46
33414;BME280;60055;41.884;12.534;2023-03-23T05:49:04;101009.88;;;13.16;69.14
33414;BME280;60055;41.884;12.534;2023-03-23T05:51:40;101004.94;;;13.07;68.46
33414;BME280;60055;41.884;12.534;2023-03-23T05:54:09;101007.22;;;13.16;68.41
33414;BME280;60055;41.884;12.534;2023-03-23T05:56:48;101015.13;;;13.18;68.22
33414;BME280;60055;41.884;12.534;2023-03-23T05:59:32;101006.91;;;13.24;68.14
33414;BME280;60055;41.884;12.534;2023-03-23T06:01:59;101020.09;;;13.66;68.06
33414;BME280;60055;41.884;12.534;2023-03-23T06:04:53;101013.72;;;13.70;66.64
33414;BME280;60055;41.884;12.534;2023-03-23T06:07:24;101019.22;;;13.65;65.92
33414;BME280;60055;41.884;12.534;2023-03-23T06:10:12;101021.47;;;13.95;65.45
33414;BME280;60055;41.884;12.534;2023-03-23T06:13:13;101031.22;;;13.94;64.98
33414;BME280;60055;41.884;12.534;2023-03-23T06:15:45;101026.09;;;14.28;64.00
33414;BME280;60055;41.884;12.534;2023-03-23T06:18:10;101020.78;;;14.28;64.00
33414;BME280;60055;41.884;12.534;2023-03-23T06:20:39;101026.13;;;14.47;63.54
33414;BME280;60055;41.884;12.534;2023-03-23T06:23:06;101016.41;;;14.65;63.33
33414;BME280;60055;41.884;12.534;2023-03-23T06:25:40;101026.88;;;14.87;62.66
33414;BME280;60055;41.884;12.534;2023-03-23T06:28:12;101035.81;;;15.03;61.61
33414;BME280;60055;41.884;12.534;2023-03-23T06:30:37;101027.00;;;15.19;60.82
33414;BME280;60055;41.884;12.534;2023-03-23T06:33:03;101032.56;;;15.32;60.28
33414;BME280;60055;41.884;12.534;2023-03-23T06:35:33;101036.06;;;15.51;60.18
33414;BME280;60055;41.884;12.534;2023-03-23T06:38:01;101036.66;;;15.56;59.63
33414;BME280;60055;41.884;12.534;2023-03-23T06:40:51;101037.69;;;15.54;58.94
33414;BME280;60055;41.884;12.534;2023-03-23T06:46:29;101050.84;;;15.74;59.16
33414;BME280;60055;41.884;12.534;2023-03-23T06:49:26;101051.56;;;15.60;58.91
33414;BME280;60055;41.884;12.534;2023-03-23T06:52:03;101055.13;;;15.59;59.33
33414;BME280;60055;41.884;12.534;2023-03-23T06:54:41;101055.31;;;15.56;60.51
33414;BME280;60055;41.884;12.534;2023-03-23T06:57:25;101059.09;;;15.85;59.37
33414;BME280;60055;41.884;12.534;2023-03-23T07:00:14;101061.06;;;16.31;57.83
33414;BME280;60055;41.884;12.534;2023-03-23T07:03:00;101053.25;;;16.44;56.51
33414;BME280;60055;41.884;12.534;2023-03-23T07:05:45;101063.53;;;16.83;55.52
33414;BME280;60055;41.884;12.534;2023-03-23T07:08:22;101053.34;;;17.05;54.47
33414;BME280;60055;41.884;12.534;2023-03-23T07:11:01;101063.28;;;17.03;53.93
33414;BME280;60055;41.884;12.534;2023-03-23T07:13:33;101072.47;;;17.13;53.61
33414;BME280;60055;41.884;12.534;2023-03-23T07:16:24;101067.22;;;17.42;52.71
33414;BME280;60055;41.884;12.534;2023-03-23T07:19:01;101066.53;;;17.54;52.40
33414;BME280;60055;41.884;12.534;2023-03-23T07:21:31;101067.88;;;17.61;52.16
33414;BME280;60055;41.884;12.534;2023-03-23T07:24:16;101071.19;;;17.34;53.02
33414;BME280;60055;41.884;12.534;2023-03-23T07:26:48;101078.41;;;16.87;54.48
33414;BME280;60055;41.884;12.534;2023-03-23T07:29:24;101081.41;;;17.12;53.92
33414;BME280;60055;41.884;12.534;2023-03-23T07:31:50;101077.91;;;16.96;54.22
33414;BME280;60055;41.884;12.534;2023-03-23T07:34:19;101094.16;;;17.53;52.43
33414;BME280;60055;41.884;12.534;2023-03-23T07:37:13;101088.31;;;18.06;51.12
33414;BME280;60055;41.884;12.534;2023-03-23T07:39:52;101090.59;;;18.12;51.09
33414;BME280;60055;41.884;12.534;2023-03-23T07:43:00;101095.47;;;18.33;50.35
33414;BME280;60055;41.884;12.534;2023-03-23T07:45:33;101093.72;;;17.90;51.11
33414;BME280;60055;41.884;12.534;2023-03-23T07:48:17;101098.63;;;17.07;52.98
33414;BME280;60055;41.884;12.534;2023-03-23T07:50:52;101093.41;;;16.90;54.20
33414;BME280;60055;41.884;12.534;2023-03-23T07:53:22;101096.31;;;16.85;53.84
33414;BME280;60055;41.884;12.534;2023-03-23T07:55:51;101101.34;;;17.36;53.47
33414;BME280;60055;41.884;12.534;2023-03-23T07:58:21;101098.97;;;17.92;51.95
33414;BME280;60055;41.884;12.534;2023-03-23T08:01:06;101112.63;;;17.42;52.65
33414;BME280;60055;41.884;12.534;2023-03-23T08:04:01;101106.41;;;17.86;51.86
33414;BME280;60055;41.884;12.534;2023-03-23T08:06:27;101102.53;;;18.06;50.70
33414;BME280;60055;41.884;12.534;2023-03-23T08:09:04;101106.94;;;17.32;53.05
33414;BME280;60055;41.884;12.534;2023-03-23T08:11:39;101114.00;;;17.17;53.24
33414;BME280;60055;41.884;12.534;2023-03-23T08:14:22;101121.59;;;17.56;51.74
33414;BME280;60055;41.884;12.534;2023-03-23T08:16:55;101108.53;;;17.96;51.12
33414;BME280;60055;41.884;12.534;2023-03-23T08:19:24;101114.47;;;18.29;50.18
33414;BME280;60055;41.884;12.534;2023-03-23T08:21:49;101113.22;;;18.49;49.13
33414;BME280;60055;41.884;12.534;2023-03-23T08:24:16;101123.50;;;19.11;47.61
33414;BME280;60055;41.884;12.534;2023-03-23T08:26:43;101122.22;;;18.48;49.13
33414;BME280;60055;41.884;12.534;2023-03-23T08:29:12;101127.56;;;18.76;48.46
33414;BME280;60055;41.884;12.534;2023-03-23T08:31:39;101122.19;;;19.31;47.35
33414;BME280;60055;41.884;12.534;2023-03-23T08:34:04;101129.78;;;19.24;46.90
33414;BME280;60055;41.884;12.534;2023-03-23T08:36:32;101134.53;;;18.93;46.90
33414;BME280;60055;41.884;12.534;2023-03-23T08:38:58;101135.97;;;18.84;47.37
33414;BME280;60055;41.884;12.534;2023-03-23T08:41:31;101139.97;;;19.05;47.08
33414;BME280;60055;41.884;12.534;2023-03-23T08:44:08;101133.59;;;19.20;46.28
33414;BME280;60055;41.884;12.534;2023-03-23T08:46:35;101132.41;;;19.53;44.91
33414;BME280;60055;41.884;12.534;2023-03-23T08:49:01;101143.28;;;19.23;46.11
33414;BME280;60055;41.884;12.534;2023-03-23T08:51:26;101145.31;;;19.05;46.24
33414;BME280;60055;41.884;12.534;2023-03-23T08:53:51;101140.50;;;19.51;45.38
33414;BME280;60055;41.884;12.534;2023-03-23T08:56:17;101144.06;;;19.52;44.90
33414;BME280;60055;41.884;12.534;2023-03-23T08:58:43;101147.13;;;19.05;45.21
33414;BME280;60055;41.884;12.534;2023-03-23T09:01:08;101146.19;;;19.47;43.85
33414;BME280;60055;41.884;12.534;2023-03-23T09:03:35;101151.69;;;19.97;43.71
33414;BME280;60055;41.884;12.534;2023-03-23T09:06:02;101152.72;;;19.28;43.84
33414;BME280;60055;41.884;12.534;2023-03-23T09:08:28;101156.13;;;19.04;43.83
33414;BME280;60055;41.884;12.534;2023-03-23T09:11:07;101154.03;;;18.95;44.60
33414;BME280;60055;41.884;12.534;2023-03-23T09:13:34;101155.44;;;19.55;43.44
33414;BME280;60055;41.884;12.534;2023-03-23T09:16:00;101161.50;;;19.84;42.92
33414;BME280;60055;41.884;12.534;2023-03-23T09:18:25;101166.94;;;20.09;42.17
33414;BME280;60055;41.884;12.534;2023-03-23T09:20:53;101159.16;;;20.31;42.07
33414;BME280;60055;41.884;12.534;2023-03-23T09:23:19;101167.41;;;19.76;42.42
33414;BME280;60055;41.884;12.534;2023-03-23T09:25:46;101172.22;;;19.30;43.55
33414;BME280;60055;41.884;12.534;2023-03-23T09:28:13;101164.13;;;19.59;44.03
33414;BME280;60055;41.884;12.534;2023-03-23T09:30:42;101163.50;;;19.68;43.46
33414;BME280;60055;41.884;12.534;2023-03-23T09:33:12;101159.41;;;20.02;42.76
33414;BME280;60055;41.884;12.534;2023-03-23T09:35:38;101163.84;;;19.63;44.44
33414;BME280;60055;41.884;12.534;2023-03-23T09:38:07;101168.75;;;19.57;45.27
33414;BME280;60055;41.884;12.534;2023-03-23T09:41:08;101165.03;;;19.72;45.24
33414;BME280;60055;41.884;12.534;2023-03-23T09:49:29;101160.03;;;19.80;45.10
33414;BME280;60055;41.884;12.534;2023-03-23T09:52:03;101157.13;;;19.29;46.52
33414;BME280;60055;41.884;12.534;2023-03-23T09:54:59;101163.63;;;19.66;44.41
33414;BME280;60055;41.884;12.534;2023-03-23T09:58:00;101161.44;;;19.59;44.41
33414;BME280;60055;41.884;12.534;2023-03-23T10:00:34;101164.22;;;19.57;44.58
33414;BME280;60055;41.884;12.534;2023-03-23T10:03:17;101161.00;;;20.04;43.47
33414;BME280;60055;41.884;12.534;2023-03-23T10:05:48;101163.16;;;20.12;42.43
33414;BME280;60055;41.884;12.534;2023-03-23T10:08:25;101161.56;;;19.97;43.33
33414;BME280;60055;41.884;12.534;2023-03-23T10:14:04;101166.66;;;20.52;40.70
33414;BME280;60055;41.884;12.534;2023-03-23T10:16:38;101146.41;;;20.48;40.35
33414;BME280;60055;41.884;12.534;2023-03-23T10:21:35;101156.38;;;20.33;41.36
33414;BME280;60055;41.884;12.534;2023-03-23T10:24:09;101148.66;;;20.54;41.34
33414;BME280;60055;41.884;12.534;2023-03-23T10:26:52;101147.56;;;20.44;41.64
33414;BME280;60055;41.884;12.534;2023-03-23T10:31:53;101156.66;;;20.16;43.13
33414;BME280;60055;41.884;12.534;2023-03-23T10:39:27;101153.31;;;20.12;44.37
33414;BME280;60055;41.884;12.534;2023-03-23T10:42:08;101151.75;;;20.35;43.35
33414;BME280;60055;41.884;12.534;2023-03-23T10:44:34;101147.09;;;20.24;44.55
33414;BME280;60055;41.884;12.534;2023-03-23T10:49:34;101142.97;;;20.33;45.17
33414;BME280;60055;41.884;12.534;2023-03-23T10:52:11;101134.81;;;20.34;44.62
33414;BME280;60055;41.884;12.534;2023-03-23T10:54:50;101135.09;;;20.17;44.13
33414;BME280;60055;41.884;12.534;2023-03-23T10:57:25;101143.75;;;20.08;44.46
33414;BME280;60055;41.884;12.534;2023-03-23T10:59:58;101143.97;;;20.05;45.07
33414;BME280;60055;41.884;12.534;2023-03-23T11:02:24;101135.84;;;20.07;44.26
33414;BME280;60055;41.884;12.534;2023-03-23T11:05:00;101132.06;;;20.09;44.05
33414;BME280;60055;41.884;12.534;2023-03-23T11:07:30;101136.69;;;20.20;43.07
33414;BME280;60055;41.884;12.534;2023-03-23T11:10:06;101130.56;;;20.18;43.03
33414;BME280;60055;41.884;12.534;2023-03-23T11:12:34;101128.31;;;20.24;43.13
33414;BME280;60055;41.884;12.534;2023-03-23T11:15:24;101126.41;;;20.26;42.87
33414;BME280;60055;41.884;12.534;2023-03-23T11:18:02;101127.25;;;20.14;43.64
33414;BME280;60055;41.884;12.534;2023-03-23T11:20:33;101123.81;;;20.12;43.83
33414;BME280;60055;41.884;12.534;2023-03-23T11:23:01;101114.31;;;20.33;43.87
33414;BME280;60055;41.884;12.534;2023-03-23T11:25:32;101118.38;;;20.52;43.38
33414;BME280;60055;41.884;12.534;2023-03-23T11:27:59;101126.75;;;20.60;42.98
33414;BME280;60055;41.884;12.534;2023-03-23T11:30:27;101125.00;;;20.59;42.33
33414;BME280;60055;41.884;12.534;2023-03-23T11:32:59;101122.31;;;20.59;42.38
33414;BME280;60055;41.884;12.534;2023-03-23T11:35:27;101122.03;;;20.38;42.36
33414;BME280;60055;41.884;12.534;2023-03-23T11:37:56;101120.84;;;20.55;41.82
33414;BME280;60055;41.884;12.534;2023-03-23T11:40:31;101116.66;;;20.63;41.96
33414;BME280;60055;41.884;12.534;2023-03-23T11:43:00;101114.06;;;20.74;41.48
33414;BME280;60055;41.884;12.534;2023-03-23T11:45:37;101118.78;;;20.71;42.21
33414;BME280;60055;41.884;12.534;2023-03-23T11:48:45;101122.22;;;20.73;41.42
33414;BME280;60055;41.884;12.534;2023-03-23T11:54:19;101117.56;;;20.87;40.62
33414;BME280;60055;41.884;12.534;2023-03-23T11:56:47;101114.78;;;20.76;40.17
33414;BME280;60055;41.884;12.534;2023-03-23T11:59:16;101109.22;;;20.67;41.39
33414;BME280;60055;41.884;12.534;2023-03-23T12:01:56;101110.28;;;20.77;41.91
33414;BME280;60055;41.884;12.534;2023-03-23T12:04:33;101111.81;;;21.05;41.71
33414;BME280;60055;41.884;12.534;2023-03-23T12:14:56;101095.81;;;20.67;41.25
33414;BME280;60055;41.884;12.534;2023-03-23T12:23:25;101090.09;;;21.20;40.76
33414;BME280;60055;41.884;12.534;2023-03-23T12:26:17;101084.47;;;21.47;39.57
33414;BME280;60055;41.884;12.534;2023-03-23T12:29:10;101090.09;;;21.44;39.00
33414;BME280;60055;41.884;12.534;2023-03-23T12:34:37;101081.84;;;21.58;37.86
33414;BME280;60055;41.884;12.534;2023-03-23T12:45:53;101073.03;;;21.91;36.37
33414;BME280;60055;41.884;12.534;2023-03-23T12:48:28;101056.72;;;21.81;36.32
33414;BME280;60055;41.884;12.534;2023-03-23T12:53:52;101056.03;;;21.90;36.10
33414;BME280;60055;41.884;12.534;2023-03-23T12:56:26;101052.69;;;21.87;35.91
33414;BME280;60055;41.884;12.534;2023-03-23T12:59:02;101048.63;;;22.05;35.94
33414;BME280;60055;41.884;12.534;2023-03-23T13:01:33;101049.38;;;22.29;35.74
33414;BME280;60055;41.884;12.534;2023-03-23T13:04:10;101047.13;;;21.90;34.95
33414;BME280;60055;41.884;12.534;2023-03-23T13:12:14;101043.72;;;21.64;36.95
33414;BME280;60055;41.884;12.534;2023-03-23T13:15:01;101057.41;;;21.61;36.69
33414;BME280;60055;41.884;12.534;2023-03-23T13:23:19;101049.34;;;21.96;36.35
33414;BME280;60055;41.884;12.534;2023-03-23T13:26:14;101051.19;;;21.96;36.32
33414;BME280;60055;41.884;12.534;2023-03-23T13:29:10;101051.09;;;22.19;35.73
33414;BME280;60055;41.884;12.534;2023-03-23T13:31:39;101051.19;;;22.18;35.12
33414;BME280;60055;41.884;12.534;2023-03-23T13:34:15;101043.47;;;22.24;35.02
33414;BME280;60055;41.884;12.534;2023-03-23T13:36:51;101048.84;;;21.91;35.66
33414;BME280;60055;41.884;12.534;2023-03-23T13:39:47;101045.31;;;22.02;35.19
33414;BME280;60055;41.884;12.534;2023-03-23T13:42:20;101051.06;;;22.08;35.18
33414;BME280;60055;41.884;12.534;2023-03-23T13:47:28;101056.31;;;21.64;37.09
33414;BME280;60055;41.884;12.534;2023-03-23T13:49:57;101050.69;;;21.56;37.20
33414;BME280;60055;41.884;12.534;2023-03-23T13:54:49;101043.19;;;21.48;37.33
33414;BME280;60055;41.884;12.534;2023-03-23T14:01:13;101044.47;;;21.31;37.70
33414;BME280;60055;41.884;12.534;2023-03-23T14:04:00;101041.09;;;21.40;36.20
33414;BME280;60055;41.884;12.534;2023-03-23T14:06:35;101044.91;;;21.14;37.59
33414;BME280;60055;41.884;12.534;2023-03-23T14:12:35;101042.69;;;20.59;33.85
33414;BME280;60055;41.884;12.534;2023-03-23T14:15:05;101048.38;;;20.67;33.65
33414;BME280;60055;41.884;12.534;2023-03-23T14:17:43;101044.59;;;20.70;35.21
33414;BME280;60055;41.884;12.534;2023-03-23T14:20:31;101042.84;;;20.81;35.60
33414;BME280;60055;41.884;12.534;2023-03-23T14:23:40;101037.97;;;20.63;35.17
33414;BME280;60055;41.884;12.534;2023-03-23T14:26:19;101039.22;;;20.70;36.00
33414;BME280;60055;41.884;12.534;2023-03-23T14:29:21;101036.94;;;20.76;35.75
33414;BME280;60055;41.884;12.534;2023-03-23T14:31:56;101033.56;;;20.62;35.97
33414;BME280;60055;41.884;12.534;2023-03-23T14:34:28;101029.63;;;20.55;35.88
33414;BME280;60055;41.884;12.534;2023-03-23T14:37:26;101038.03;;;20.74;35.63
33414;BME280;60055;41.884;12.534;2023-03-23T14:40:01;101035.56;;;20.34;37.09
33414;BME280;60055;41.884;12.534;2023-03-23T14:42:36;101038.31;;;20.46;37.43
33414;BME280;60055;41.884;12.534;2023-03-23T14:45:04;101033.94;;;20.45;37.86
33414;BME280;60055;41.884;12.534;2023-03-23T14:47:37;101034.13;;;20.54;37.04
33414;BME280;60055;41.884;12.534;2023-03-23T14:50:06;101043.16;;;20.28;38.54
33414;BME280;60055;41.884;12.534;2023-03-23T14:55:26;101044.03;;;20.03;38.90
33414;BME280;60055;41.884;12.534;2023-03-23T14:58:07;101043.59;;;20.09;39.52
33414;BME280;60055;41.884;12.534;2023-03-23T15:00:39;101042.75;;;19.96;40.56
33414;BME280;60055;41.884;12.534;2023-03-23T15:03:12;101040.91;;;20.09;39.77
33414;BME280;60055;41.884;12.534;2023-03-23T15:05:51;101041.53;;;19.75;41.07
33414;BME280;60055;41.884;12.534;2023-03-23T15:08:19;101032.34;;;19.79;40.62
33414;BME280;60055;41.884;12.534;2023-03-23T15:13:59;101037.34;;;19.71;42.39
33414;BME280;60055;41.884;12.534;2023-03-23T15:16:32;101041.84;;;19.70;40.87
33414;BME280;60055;41.884;12.534;2023-03-23T15:19:06;101047.13;;;19.59;41.89
33414;BME280;60055;41.884;12.534;2023-03-23T15:21:50;101045.41;;;19.71;41.88
33414;BME280;60055;41.884;12.534;2023-03-23T15:24:39;101044.84;;;19.53;41.32
33414;BME280;60055;41.884;12.534;2023-03-23T15:27:18;101045.59;;;19.55;41.14
33414;BME280;60055;41.884;12.534;2023-03-23T15:30:00;101041.63;;;19.48;41.70
33414;BME280;60055;41.884;12.534;2023-03-23T15:42:46;101047.66;;;18.98;40.46
33414;BME280;60055;41.884;12.534;2023-03-23T15:48:33;101041.19;;;18.88;41.40
33414;BME280;60055;41.884;12.534;2023-03-23T15:51:18;101044.06;;;18.85;41.19
33414;BME280;60055;41.884;12.534;2023-03-23T15:53:48;101052.38;;;18.80;41.28
33414;BME280;60055;41.884;12.534;2023-03-23T15:56:15;101051.03;;;18.87;41.08
33414;BME280;60055;41.884;12.534;2023-03-23T15:58:44;101046.38;;;19.04;41.64
33414;BME280;60055;41.884;12.534;2023-03-23T16:01:47;101048.09;;;18.78;41.37
33414;BME280;60055;41.884;12.534;2023-03-23T16:04:26;101049.09;;;18.89;41.71
33414;BME280;60055;41.884;12.534;2023-03-23T16:13:41;101046.72;;;18.85;42.23
33414;BME280;60055;41.884;12.534;2023-03-23T16:16:19;101048.81;;;18.94;41.81
33414;BME280;60055;41.884;12.534;2023-03-23T16:18:46;101046.56;;;19.01;41.63
33414;BME280;60055;41.884;12.534;2023-03-23T16:21:27;101049.16;;;19.02;41.98
33414;BME280;60055;41.884;12.534;2023-03-23T16:23:57;101046.28;;;19.05;41.95
33414;BME280;60055;41.884;12.534;2023-03-23T16:26:24;101041.06;;;18.89;40.88
33414;BME280;60055;41.884;12.534;2023-03-23T16:28:58;101053.72;;;18.73;41.21
33414;BME280;60055;41.884;12.534;2023-03-23T16:31:39;101056.59;;;18.70;41.28
33414;BME280;60055;41.884;12.534;2023-03-23T16:34:15;101055.16;;;18.79;41.84
33414;BME280;60055;41.884;12.534;2023-03-23T16:39:19;101059.19;;;18.72;41.11
33414;BME280;60055;41.884;12.534;2023-03-23T16:42:51;101068.66;;;18.63;41.61